Strona główna
METAR-TAF:

Lotnisko :

Poznań, Polska

Port lotniczy Poznań-Ławica

Szerokość geograficzna: 52-25N, Długość geograficzna: 016-50E, wysokość: 86 m

Aktualna obserwacja pogody

Raport powstał 32 minut temu, godzina 17:00 UTC
Wiatr 9 kt od wschód
Temperatura 27°C
Wilgotność 28%
Ciśnienie 1007 hPa
Widzialność 10 km lub więcej
Brak chmur poniżej 1500 m i brak chmur cumulonimbus

METAR: EPPO 241700Z 09009KT CAVOK 27/07 Q1007

czas: 19:32 (17:32 UTC)

Prognoza

Raport powstał 6 godziny i 2 minut temu, godzina 11:30 UTC
Prognoza ważna od 24 godzina 12 UTC do 25 godzina 12 UTC
Wiatr 12 kt od wschód
Widzialność 10 km lub więcej
Brak chmur poniżej 1500 m i brak chmur cumulonimbus
Przejściowo
od 24 godzina 12 UTC do 24 godzina 18 UTC
Wiatr 16 kt od wschód w porywach dochodzący do 30 kt
Rozproszone chmury na wysokości 5000 ft, Cumulusy wypiętrznone.
Stopniowe zmiany
od 25 godzina 06 UTC do 25 godzina 08 UTC
Wiatr 6 kt od północ

TAF: EPPO 241130Z 2412/2512 10012KT CAVOK TEMPO 2412/2418 10016G30KT SCT050TCU BECMG 2506/2508 01006KT

METAR-TAF

Obserwacja i prognoza pogody dla ponad 4000 lotnisk (raport METAR i TAF).

Dostępne stacje oznaczono żółtymi i czerwonymi punktami na mapie.

Najedź kursorem aby zobaczyć nazwę stacji.

Kliknij aby zobaczyć obserwacje i prognozy pogody.

Aby zmienić mapę: kliknij na zielony przycisk z czarnym krzyżykiem, aby powiększyć; na zielony przycisk z myślnikiem, aby pomniejszyć; na zielone strzałki, aby przejść do map sąsiednich.


METAR-TAF: